Buoy 21539

sailwx.info

Track history (hours):
 
Tides and Currents Weather Stations Pressure Air Temp Water Temp Dewpoint Dewpoint Depression Visibility Wind Speed Wind Dir Waves Ship Positions

Drifting buoy 21539

Last reported at 2014-Jul-24 07:10 UTC. Time now 2014-Jul-24 10:43 UTC.
Position N 51°29' E 169°25'.

Barometer 1030.9 mb
Water temperature 11.6 ° C

Date/timePositionNaut miles runAvg speedWind from/ knotsBaromVisibWave heightAir tempDewpointWater temp
2014-Jul-24 07:10N 51°29' E 169°25'1 0.5 1030.9 11.6
2014-Jul-24 04:10N 51°27' E 169°24'2 1.6 1030.6 11.6
2014-Jul-24 03:10N 51°26' E 169°22'2 1.9 1030.9 11.6
2014-Jul-24 02:10N 51°25' E 169°25'0 0.4 1030.8 11.6
2014-Jul-24 01:10N 51°25' E 169°24'1 1.3 1030.8 11.6
2014-Jul-24 00:10N 51°25' E 169°26'2 1.6 1030.8 11.6
2014-Jul-23 23:10N 51°23' E 169°25'1 0.4 1031.0 11.6
2014-Jul-23 21:10N 51°24' E 169°24'2 0.8 1030.9 11.5
2014-Jul-23 18:10N 51°21' E 169°25'0 0.0 1030.2 11.6
2014-Jul-23 17:10N 51°21' E 169°25'1 1.0 1029.9 11.6
2014-Jul-23 16:10N 51°21' E 169°24'4 3.5 1029.7 11.6
2014-Jul-23 15:10N 51°17' E 169°24'0 0.0 1029.8 11.6
2014-Jul-23 13:10N 51°17' E 169°24'0 0.0 1029.9 11.6
2014-Jul-23 12:10N 51°17' E 169°24'1 0.2 1030.0 11.6
2014-Jul-23 08:10N 51°16' E 169°24'0 0.0 1029.0 11.6
2014-Jul-23 07:10N 51°16' E 169°24'3 3.0 1028.9 11.6
2014-Jul-23 06:10N 51°13' E 169°25'0 0.0 1028.7 11.6
2014-Jul-23 05:10N 51°13' E 169°25'0 0.0 1028.7 11.7
2014-Jul-23 04:10N 51°13' E 169°25'0 0.0 1028.6 11.7
2014-Jul-23 02:10N 51°13' E 169°25'1 0.5 1028.9 11.6
2014-Jul-23 01:10N 51°14' E 169°25'2 1.7 1028.9 11.5
2014-Jul-23 00:10N 51°12' E 169°26'0 0.0 1028.6 11.4
2014-Jul-22 23:10N 51°12' E 169°26'4 0.6 1028.4 11.3
2014-Jul-22 16:10N 51°08' E 169°26'1 0.6 1026.2 11.2
2014-Jul-22 15:10N 51°08' E 169°27'2 1.2 1026.0 11.2
2014-Jul-22 13:10N 51°05' E 169°26'0 0.0 1026.0 11.2
2014-Jul-22 11:10N 51°05' E 169°26'1 1.5 1025.9 11.2
2014-Jul-22 10:10N 51°05' E 169°28'1 0.5 1025.8 11.3
2014-Jul-22 09:10N 51°05' E 169°28'2 0.5 1025.6 11.3
2014-Jul-22 06:10N 51°05' E 169°30'3 2.7 1024.7 11.3
2014-Jul-22 05:10N 51°03' E 169°27'0 0.0 1024.1 11.3
2014-Jul-22 04:10N 51°03' E 169°27'4 3.6 1023.7 11.3
2014-Jul-22 03:10N 51°01' E 169°32'0 0.0 1023.6 11.3
2014-Jul-22 02:10N 51°01' E 169°32'0 0.0 1023.6 11.3
2014-Jul-22 01:10N 51°01' E 169°32'3 0.5 1023.6 11.2
2014-Jul-21 20:10N 50°58' E 169°33'1 1.2 1022.9 11.0
2014-Jul-21 19:10N 50°57' E 169°33'0 0.0 1022.3 11.1
2014-Jul-21 18:10N 50°57' E 169°33'0 0.0 1022.2 11.0
2014-Jul-21 17:10N 50°57' E 169°33'0 0.0 1022.1 11.1
2014-Jul-21 16:10N 50°57' E 169°33'0 0.1 1021.9 11.1
2014-Jul-21 14:10N 50°57' E 169°33'3 0.8 1021.9 11.2
2014-Jul-21 10:10N 50°54' E 169°34'1 1.3 1021.5 11.2
2014-Jul-21 09:10N 50°53' E 169°36'2 2.2 1021.2 11.2
2014-Jul-21 08:10N 50°52' E 169°39'0 0.0 1020.9 11.2
2014-Jul-21 07:10N 50°52' E 169°39'2 0.6 1020.7 11.3
2014-Jul-21 04:10N 50°52' E 169°36'2 1.9 1020.6 11.3
2014-Jul-21 03:10N 50°50' E 169°36'0 0.0 1020.6 11.3
2014-Jul-21 01:10N 50°50' E 169°36'5 4.7 1020.9 11.2
2014-Jul-21 00:10N 50°47' E 169°42'1 0.1 1021.3 11.1
2014-Jul-20 17:10N 50°46' E 169°43'0 0.0 1021.8 11.0
2014-Jul-20 16:10N 50°46' E 169°43'4 4.4 1021.6 11.0
2014-Jul-20 15:10N 50°42' E 169°46'0 0.0 1021.5 11.0
2014-Jul-20 14:10N 50°42' E 169°46'0 0.0 1021.8 11.0
2014-Jul-20 10:10N 50°42' E 169°46'0 0.0 1022.2 11.0
2014-Jul-20 09:10N 50°42' E 169°46'4 2.0 1022.1 11.0
2014-Jul-20 07:10N 50°39' E 169°51'0 0.0 1021.8 11.1
2014-Jul-20 04:10N 50°39' E 169°51'2 0.5 1022.0 11.0
2014-Jul-20 00:10N 50°38' E 169°51'3 1.6 1022.5 10.9
2014-Jul-19 22:10N 50°37' E 169°56'2 0.5 1022.8 10.8
2014-Jul-19 19:10N 50°36' E 169°56'0 0.0 1022.6 10.8
2014-Jul-19 18:10N 50°36' E 169°56'4 1.3 1022.3 10.8
2014-Jul-19 15:10N 50°33' E 170°00'0 0.0 1022.0 10.9
2014-Jul-19 14:10N 50°33' E 170°00'0 0.0 1022.3 10.9
2014-Jul-19 11:10N 50°33' E 170°00'1 0.3 1023.3 10.9
2014-Jul-19 09:10N 50°33' E 170°01'3 1.4 1023.7 11.0
2014-Jul-19 07:10N 50°32' E 170°05'0 0.0 1023.4 11.0
2014-Jul-19 03:10N 50°32' E 170°05'1 0.4 1024.3 11.1
2014-Jul-19 01:10N 50°31' E 170°06'3 2.6 1024.7 11.0
2014-Jul-19 00:10N 50°29' E 170°08'0 0.2 1025.1 10.9
2014-Jul-18 21:10N 50°30' E 170°08'0 0.0 1025.6 10.8
2014-Jul-18 20:10N 50°30' E 170°08'4 1.8 1025.6 10.8
2014-Jul-18 18:10N 50°28' E 170°13'0 0.0 1025.4 10.9
2014-Jul-18 17:10N 50°28' E 170°13'4 3.5 1025.3 10.9
2014-Jul-18 16:10N 50°26' E 170°17'0 0.0 1025.3 10.9
2014-Jul-18 15:10N 50°26' E 170°17'0 0.0 1025.5 10.9
2014-Jul-18 14:10N 50°26' E 170°17'1 0.3 1025.7 10.9
2014-Jul-18 09:10N 50°26' E 170°19'0 0.0 1026.2 11.0
2014-Jul-18 08:10N 50°26' E 170°19'2 1.1 1025.7 11.0
2014-Jul-18 06:10N 50°25' E 170°22'0 0.1 1025.7 11.0
2014-Jul-18 03:10N 50°25' E 170°23'1 0.5 1025.5 11.1
2014-Jul-18 02:10N 50°25' E 170°22'1 0.9 1025.8 11.0
2014-Jul-18 01:10N 50°24' E 170°23'2 2.3 1025.6 11.3
2014-Jul-18 00:10N 50°24' E 170°26'1 0.7 1025.7 10.8
2014-Jul-17 22:10N 50°25' E 170°28'0 0.2 1025.9 10.8
2014-Jul-17 19:10N 50°24' E 170°28'3 1.6 1025.7 10.7
2014-Jul-17 17:10N 50°23' E 170°33'1 0.8 1025.0 10.7
2014-Jul-17 16:10N 50°23' E 170°34'0 0.0 1025.0 10.8
2014-Jul-17 15:10N 50°23' E 170°34'0 0.0 1024.9 10.8
2014-Jul-17 14:10N 50°23' E 170°34'0 0.0 1024.9 10.8
2014-Jul-17 13:10N 50°23' E 170°34'3 1.4 1024.9 10.8
2014-Jul-17 11:10N 50°22' E 170°38'3 0.7 1025.2 10.8
2014-Jul-17 06:10N 50°23' E 170°42'0 0.0 1023.7 10.9
2014-Jul-17 03:10N 50°23' E 170°42'0 0.4 1023.8 10.8
2014-Jul-17 02:10N 50°23' E 170°43'0 0.0 1023.8 10.7
2014-Jul-17 01:10N 50°23' E 170°43'1 1.4 1023.9 10.6
2014-Jul-17 00:10N 50°23' E 170°45'2 1.6 1023.6 10.5
2014-Jul-16 23:10N 50°23' E 170°48'0 0.0 1023.3 10.5
2014-Jul-16 22:10N 50°23' E 170°48'0 0.1 1023.4 10.5
2014-Jul-16 19:10N 50°22' E 170°48'6 1.9 1022.5 10.4
2014-Jul-16 16:10N 50°21' E 170°56'0 0.0 1021.6 10.5
2014-Jul-16 15:10N 50°21' E 170°56'3 1.6 1021.2 10.5
2014-Jul-16 13:10N 50°24' E 170°57'3 0.6 1021.0 10.5
2014-Jul-16 08:10N 50°26' E 171°00'0 0.0 1019.2 10.6
2014-Jul-16 03:10N 50°26' E 171°00'0 0.0 1018.2 10.6
2014-Jul-16 02:10N 50°26' E 171°00'3 2.8 1018.4 10.6
2014-Jul-16 01:10N 50°24' E 171°04'0 0.0 1018.1 10.5
2014-Jul-16 00:10N 50°24' E 171°04'1 1.2 1018.0 10.5
2014-Jul-15 23:10N 50°24' E 171°02'4 0.9 1018.0 10.4
2014-Jul-15 19:10N 50°26' E 171°06'7 2.3 1016.7 10.4
2014-Jul-15 16:10N 50°28' E 171°16'0 0.0 1015.7 10.4
2014-Jul-15 15:10N 50°28' E 171°16'0 0.0 1015.7 10.5
2014-Jul-15 13:10N 50°28' E 171°16'0 0.0 1015.6 10.5
2014-Jul-15 11:10N 50°28' E 171°16'0 0.0 1015.4 10.5
2014-Jul-15 10:10N 50°28' E 171°16'0 0.0 1015.5 10.6
2014-Jul-15 09:10N 50°28' E 171°16'2 0.3 1015.2 10.6
2014-Jul-15 04:10N 50°30' E 171°18'2 0.8 1014.1 10.6
2014-Jul-15 02:10N 50°31' E 171°19'0 0.0 1014.4 10.6
2014-Jul-15 01:10N 50°31' E 171°19'1 0.9 1014.4 10.6
2014-Jul-15 00:10N 50°31' E 171°20'2 0.6 1014.4 10.4
2014-Jul-14 21:10N 50°32' E 171°22'0 0.0 1014.3 10.4
2014-Jul-14 19:10N 50°32' E 171°22'2 1.2 1014.3 10.3
2014-Jul-14 17:10N 50°35' E 171°23'4 3.7 1014.3 10.3
2014-Jul-14 16:10N 50°35' E 171°29'0 0.0 1014.3 10.3
2014-Jul-14 15:10N 50°35' E 171°29'3 1.4 1014.2 10.3
2014-Jul-14 13:10N 50°37' E 171°29'0 0.0 1014.8 10.3
2014-Jul-14 10:10N 50°37' E 171°29'7 2.3 1015.6 10.4
2014-Jul-14 07:10N 50°41' E 171°38'   1015.3 10.4
Track history (hours):
 
Tides and Currents Weather Stations Pressure Air Temp Water Temp Dewpoint Dewpoint Depression Visibility Wind Speed Wind Dir Waves Ship Positions

Drifting buoy 21539

Last reported at 2014-Jul-24 07:10 UTC. Time now 2014-Jul-24 10:43 UTC.
Position N 51°29' E 169°25'.

Barometer 1030.9 mb
Water temperature 11.6 ° C

Date/timePositionNaut miles runAvg speedWind from/ knotsBaromVisibWave heightAir tempDewpointWater temp
2014-Jul-24 07:10N 51°29' E 169°25'1 0.5 1030.9 11.6
2014-Jul-24 04:10N 51°27' E 169°24'2 1.6 1030.6 11.6
2014-Jul-24 03:10N 51°26' E 169°22'2 1.9 1030.9 11.6
2014-Jul-24 02:10N 51°25' E 169°25'0 0.4 1030.8 11.6
2014-Jul-24 01:10N 51°25' E 169°24'1 1.3 1030.8 11.6
2014-Jul-24 00:10N 51°25' E 169°26'2 1.6 1030.8 11.6
2014-Jul-23 23:10N 51°23' E 169°25'1 0.4 1031.0 11.6
2014-Jul-23 21:10N 51°24' E 169°24'2 0.8 1030.9 11.5
2014-Jul-23 18:10N 51°21' E 169°25'0 0.0 1030.2 11.6
2014-Jul-23 17:10N 51°21' E 169°25'1 1.0 1029.9 11.6
2014-Jul-23 16:10N 51°21' E 169°24'4 3.5 1029.7 11.6
2014-Jul-23 15:10N 51°17' E 169°24'0 0.0 1029.8 11.6
2014-Jul-23 13:10N 51°17' E 169°24'0 0.0 1029.9 11.6
2014-Jul-23 12:10N 51°17' E 169°24'1 0.2 1030.0 11.6
2014-Jul-23 08:10N 51°16' E 169°24'0 0.0 1029.0 11.6
2014-Jul-23 07:10N 51°16' E 169°24'3 3.0 1028.9 11.6
2014-Jul-23 06:10N 51°13' E 169°25'0 0.0 1028.7 11.6
2014-Jul-23 05:10N 51°13' E 169°25'0 0.0 1028.7 11.7
2014-Jul-23 04:10N 51°13' E 169°25'0 0.0 1028.6 11.7
2014-Jul-23 02:10N 51°13' E 169°25'1 0.5 1028.9 11.6
2014-Jul-23 01:10N 51°14' E 169°25'2 1.7 1028.9 11.5
2014-Jul-23 00:10N 51°12' E 169°26'0 0.0 1028.6 11.4
2014-Jul-22 23:10N 51°12' E 169°26'4 0.6 1028.4 11.3
2014-Jul-22 16:10N 51°08' E 169°26'1 0.6 1026.2 11.2
2014-Jul-22 15:10N 51°08' E 169°27'2 1.2 1026.0 11.2
2014-Jul-22 13:10N 51°05' E 169°26'0 0.0 1026.0 11.2
2014-Jul-22 11:10N 51°05' E 169°26'1 1.5 1025.9 11.2
2014-Jul-22 10:10N 51°05' E 169°28'1 0.5 1025.8 11.3
2014-Jul-22 09:10N 51°05' E 169°28'2 0.5 1025.6 11.3
2014-Jul-22 06:10N 51°05' E 169°30'3 2.7 1024.7 11.3
2014-Jul-22 05:10N 51°03' E 169°27'0 0.0 1024.1 11.3
2014-Jul-22 04:10N 51°03' E 169°27'4 3.6 1023.7 11.3
2014-Jul-22 03:10N 51°01' E 169°32'0 0.0 1023.6 11.3
2014-Jul-22 02:10N 51°01' E 169°32'0 0.0 1023.6 11.3
2014-Jul-22 01:10N 51°01' E 169°32'3 0.5 1023.6 11.2
2014-Jul-21 20:10N 50°58' E 169°33'1 1.2 1022.9 11.0
2014-Jul-21 19:10N 50°57' E 169°33'0 0.0 1022.3 11.1
2014-Jul-21 18:10N 50°57' E 169°33'0 0.0 1022.2 11.0
2014-Jul-21 17:10N 50°57' E 169°33'0 0.0 1022.1 11.1
2014-Jul-21 16:10N 50°57' E 169°33'0 0.1 1021.9 11.1
2014-Jul-21 14:10N 50°57' E 169°33'3 0.8 1021.9 11.2
2014-Jul-21 10:10N 50°54' E 169°34'1 1.3 1021.5 11.2
2014-Jul-21 09:10N 50°53' E 169°36'2 2.2 1021.2 11.2
2014-Jul-21 08:10N 50°52' E 169°39'0 0.0 1020.9 11.2
2014-Jul-21 07:10N 50°52' E 169°39'2 0.6 1020.7 11.3
2014-Jul-21 04:10N 50°52' E 169°36'2 1.9 1020.6 11.3
2014-Jul-21 03:10N 50°50' E 169°36'0 0.0 1020.6 11.3
2014-Jul-21 01:10N 50°50' E 169°36'5 4.7 1020.9 11.2
2014-Jul-21 00:10N 50°47' E 169°42'1 0.1 1021.3 11.1
2014-Jul-20 17:10N 50°46' E 169°43'0 0.0 1021.8 11.0
2014-Jul-20 16:10N 50°46' E 169°43'4 4.4 1021.6 11.0
2014-Jul-20 15:10N 50°42' E 169°46'0 0.0 1021.5 11.0
2014-Jul-20 14:10N 50°42' E 169°46'0 0.0 1021.8 11.0
2014-Jul-20 10:10N 50°42' E 169°46'0 0.0 1022.2 11.0
2014-Jul-20 09:10N 50°42' E 169°46'4 2.0 1022.1 11.0
2014-Jul-20 07:10N 50°39' E 169°51'0 0.0 1021.8 11.1
2014-Jul-20 04:10N 50°39' E 169°51'2 0.5 1022.0 11.0
2014-Jul-20 00:10N 50°38' E 169°51'3 1.6 1022.5 10.9
2014-Jul-19 22:10N 50°37' E 169°56'2 0.5 1022.8 10.8
2014-Jul-19 19:10N 50°36' E 169°56'0 0.0 1022.6 10.8
2014-Jul-19 18:10N 50°36' E 169°56'4 1.3 1022.3 10.8
2014-Jul-19 15:10N 50°33' E 170°00'0 0.0 1022.0 10.9
2014-Jul-19 14:10N 50°33' E 170°00'0 0.0 1022.3 10.9
2014-Jul-19 11:10N 50°33' E 170°00'1 0.3 1023.3 10.9
2014-Jul-19 09:10N 50°33' E 170°01'3 1.4 1023.7 11.0
2014-Jul-19 07:10N 50°32' E 170°05'0 0.0 1023.4 11.0
2014-Jul-19 03:10N 50°32' E 170°05'1 0.4 1024.3 11.1
2014-Jul-19 01:10N 50°31' E 170°06'3 2.6 1024.7 11.0
2014-Jul-19 00:10N 50°29' E 170°08'0 0.2 1025.1 10.9
2014-Jul-18 21:10N 50°30' E 170°08'0 0.0 1025.6 10.8
2014-Jul-18 20:10N 50°30' E 170°08'4 1.8 1025.6 10.8
2014-Jul-18 18:10N 50°28' E 170°13'0 0.0 1025.4 10.9
2014-Jul-18 17:10N 50°28' E 170°13'4 3.5 1025.3 10.9
2014-Jul-18 16:10N 50°26' E 170°17'0 0.0 1025.3 10.9
2014-Jul-18 15:10N 50°26' E 170°17'0 0.0 1025.5 10.9
2014-Jul-18 14:10N 50°26' E 170°17'1 0.3 1025.7 10.9
2014-Jul-18 09:10N 50°26' E 170°19'0 0.0 1026.2 11.0
2014-Jul-18 08:10N 50°26' E 170°19'2 1.1 1025.7 11.0
2014-Jul-18 06:10N 50°25' E 170°22'0 0.1 1025.7 11.0
2014-Jul-18 03:10N 50°25' E 170°23'1 0.5 1025.5 11.1
2014-Jul-18 02:10N 50°25' E 170°22'1 0.9 1025.8 11.0
2014-Jul-18 01:10N 50°24' E 170°23'2 2.3 1025.6 11.3
2014-Jul-18 00:10N 50°24' E 170°26'1 0.7 1025.7 10.8
2014-Jul-17 22:10N 50°25' E 170°28'0 0.2 1025.9 10.8
2014-Jul-17 19:10N 50°24' E 170°28'3 1.6 1025.7 10.7
2014-Jul-17 17:10N 50°23' E 170°33'1 0.8 1025.0 10.7
2014-Jul-17 16:10N 50°23' E 170°34'0 0.0 1025.0 10.8
2014-Jul-17 15:10N 50°23' E 170°34'0 0.0 1024.9 10.8
2014-Jul-17 14:10N 50°23' E 170°34'0 0.0 1024.9 10.8
2014-Jul-17 13:10N 50°23' E 170°34'3 1.4 1024.9 10.8
2014-Jul-17 11:10N 50°22' E 170°38'3 0.7 1025.2 10.8
2014-Jul-17 06:10N 50°23' E 170°42'0 0.0 1023.7 10.9
2014-Jul-17 03:10N 50°23' E 170°42'0 0.4 1023.8 10.8
2014-Jul-17 02:10N 50°23' E 170°43'0 0.0 1023.8 10.7
2014-Jul-17 01:10N 50°23' E 170°43'1 1.4 1023.9 10.6
2014-Jul-17 00:10N 50°23' E 170°45'2 1.6 1023.6 10.5
2014-Jul-16 23:10N 50°23' E 170°48'0 0.0 1023.3 10.5
2014-Jul-16 22:10N 50°23' E 170°48'0 0.1 1023.4 10.5
2014-Jul-16 19:10N 50°22' E 170°48'6 1.9 1022.5 10.4
2014-Jul-16 16:10N 50°21' E 170°56'0 0.0 1021.6 10.5
2014-Jul-16 15:10N 50°21' E 170°56'3 1.6 1021.2 10.5
2014-Jul-16 13:10N 50°24' E 170°57'3 0.6 1021.0 10.5
2014-Jul-16 08:10N 50°26' E 171°00'0 0.0 1019.2 10.6
2014-Jul-16 03:10N 50°26' E 171°00'0 0.0 1018.2 10.6
2014-Jul-16 02:10N 50°26' E 171°00'3 2.8 1018.4 10.6
2014-Jul-16 01:10N 50°24' E 171°04'0 0.0 1018.1 10.5
2014-Jul-16 00:10N 50°24' E 171°04'1 1.2 1018.0 10.5
2014-Jul-15 23:10N 50°24' E 171°02'4 0.9 1018.0 10.4
2014-Jul-15 19:10N 50°26' E 171°06'7 2.3 1016.7 10.4
2014-Jul-15 16:10N 50°28' E 171°16'0 0.0 1015.7 10.4
2014-Jul-15 15:10N 50°28' E 171°16'0 0.0 1015.7 10.5
2014-Jul-15 13:10N 50°28' E 171°16'0 0.0 1015.6 10.5
2014-Jul-15 11:10N 50°28' E 171°16'0 0.0 1015.4 10.5
2014-Jul-15 10:10N 50°28' E 171°16'0 0.0 1015.5 10.6
2014-Jul-15 09:10N 50°28' E 171°16'2 0.3 1015.2 10.6
2014-Jul-15 04:10N 50°30' E 171°18'2 0.8 1014.1 10.6
2014-Jul-15 02:10N 50°31' E 171°19'0 0.0 1014.4 10.6
2014-Jul-15 01:10N 50°31' E 171°19'1 0.9 1014.4 10.6
2014-Jul-15 00:10N 50°31' E 171°20'2 0.6 1014.4 10.4
2014-Jul-14 21:10N 50°32' E 171°22'0 0.0 1014.3 10.4
2014-Jul-14 19:10N 50°32' E 171°22'2 1.2 1014.3 10.3
2014-Jul-14 17:10N 50°35' E 171°23'4 3.7 1014.3 10.3
2014-Jul-14 16:10N 50°35' E 171°29'0 0.0 1014.3 10.3
2014-Jul-14 15:10N 50°35' E 171°29'3 1.4 1014.2 10.3
2014-Jul-14 13:10N 50°37' E 171°29'0 0.0 1014.8 10.3
2014-Jul-14 10:10N 50°37' E 171°29'7 2.3 1015.6 10.4
2014-Jul-14 07:10N 50°41' E 171°38'   1015.3 10.4

Dump ship's entire track history